createdAt,value
2023-04-29T00:01:21.187Z,16.70
2023-04-29T00:03:50.709Z,16.60
2023-04-29T00:06:20.353Z,16.60
2023-04-29T00:08:50.109Z,16.60
2023-04-29T00:11:19.686Z,16.70
2023-04-29T00:13:49.255Z,16.70
2023-04-29T00:16:18.959Z,16.80
2023-04-29T00:18:48.515Z,16.80
2023-04-29T00:21:18.038Z,16.70
2023-04-29T00:23:47.724Z,16.80
2023-04-29T00:26:17.192Z,16.50
2023-04-29T00:28:48.403Z,16.70
2023-04-29T00:31:17.994Z,16.60
2023-04-29T00:33:47.514Z,16.60
2023-04-29T00:36:17.189Z,16.40
2023-04-29T00:38:47.075Z,16.50
2023-04-29T00:41:16.716Z,16.50
2023-04-29T00:43:47.190Z,16.50
2023-04-29T00:46:16.838Z,16.60
2023-04-29T00:48:46.454Z,16.70
2023-04-29T00:51:18.090Z,16.50
2023-04-29T00:53:49.659Z,16.50
2023-04-29T00:56:20.922Z,16.70
2023-04-29T00:58:51.526Z,16.50
2023-04-29T01:01:22.565Z,16.50
2023-04-29T01:03:53.362Z,16.70
2023-04-29T01:06:35.717Z,16.60
2023-04-29T01:09:32.302Z,16.60
2023-04-29T01:12:39.851Z,16.50
2023-04-29T01:15:31.317Z,16.60
2023-04-29T01:18:13.708Z,16.80
2023-04-29T01:20:45.065Z,16.80
2023-04-29T01:23:14.853Z,16.70
2023-04-29T01:25:45.334Z,16.80
2023-04-29T01:28:37.569Z,17.00
2023-04-29T01:31:20.797Z,17.00
2023-04-29T01:34:02.180Z,16.90
2023-04-29T01:36:41.435Z,16.70
2023-04-29T01:39:14.080Z,16.90
2023-04-29T01:41:53.558Z,16.90
2023-04-29T01:44:30.518Z,16.80
2023-04-29T01:47:02.058Z,16.70
2023-04-29T01:49:38.516Z,16.70
2023-04-29T01:52:08.277Z,16.60
2023-04-29T01:54:40.136Z,16.60
2023-04-29T01:57:09.789Z,16.50
2023-04-29T01:59:43.032Z,16.60
2023-04-29T02:02:29.608Z,16.70
2023-04-29T02:05:01.072Z,16.70
2023-04-29T02:07:31.025Z,16.80
2023-04-29T02:10:00.836Z,16.70
2023-04-29T02:12:30.758Z,16.80
2023-04-29T02:15:00.468Z,16.80
2023-04-29T02:17:30.784Z,16.70
2023-04-29T02:20:00.384Z,16.70
2023-04-29T02:22:29.960Z,16.80
2023-04-29T02:25:42.018Z,16.60
2023-04-29T02:28:13.032Z,16.60
2023-04-29T02:30:43.151Z,16.70
2023-04-29T02:33:13.149Z,16.70
2023-04-29T02:35:44.504Z,16.80
2023-04-29T02:38:14.473Z,16.50
2023-04-29T02:40:45.886Z,16.60
2023-04-29T02:43:15.438Z,16.60
2023-04-29T02:45:46.854Z,16.60
2023-04-29T02:48:18.172Z,16.70
2023-04-29T02:50:47.706Z,16.70
2023-04-29T02:53:17.268Z,16.70
2023-04-29T02:55:47.202Z,16.50
2023-04-29T02:58:23.328Z,16.60
2023-04-29T03:00:53.295Z,16.70
2023-04-29T03:03:23.735Z,16.40
2023-04-29T03:05:53.680Z,16.30
2023-04-29T03:08:23.344Z,16.60
2023-04-29T03:10:52.929Z,16.50
2023-04-29T03:13:22.412Z,16.50
2023-04-29T03:15:52.027Z,16.70
2023-04-29T03:18:21.984Z,16.80
2023-04-29T03:20:51.594Z,16.70
2023-04-29T03:23:22.814Z,16.50
2023-04-29T03:25:53.536Z,16.60
2023-04-29T03:28:23.947Z,16.50
2023-04-29T03:30:53.564Z,16.70
2023-04-29T03:33:23.167Z,16.60
2023-04-29T03:35:52.779Z,16.70
2023-04-29T03:38:26.925Z,16.40
2023-04-29T03:40:57.505Z,16.50
2023-04-29T03:43:27.487Z,16.80
2023-04-29T03:45:57.149Z,16.70
2023-04-29T03:48:27.249Z,16.40
2023-04-29T03:50:57.498Z,16.60
2023-04-29T03:53:27.276Z,16.50
2023-04-29T03:55:58.115Z,16.70
2023-04-29T03:58:27.753Z,16.70
2023-04-29T04:00:57.336Z,16.80
2023-04-29T04:03:28.696Z,16.60
2023-04-29T04:05:58.699Z,16.80
2023-04-29T04:08:28.246Z,16.80
2023-04-29T04:11:03.095Z,16.60
2023-04-29T04:13:41.334Z,16.70
2023-04-29T04:16:12.241Z,16.70
2023-04-29T04:18:43.120Z,16.70
2023-04-29T04:21:13.640Z,16.60
2023-04-29T04:23:45.098Z,16.50
2023-04-29T04:26:16.540Z,16.80
2023-04-29T04:28:50.325Z,16.90
2023-04-29T04:31:21.654Z,16.50
2023-04-29T04:33:52.314Z,16.80
2023-04-29T04:36:22.511Z,16.80
2023-04-29T04:38:52.060Z,16.80
2023-04-29T04:41:21.532Z,17.00
2023-04-29T04:43:52.131Z,16.80
2023-04-29T04:46:25.994Z,16.90
2023-04-29T04:48:57.877Z,16.80
2023-04-29T04:51:29.100Z,16.70
2023-04-29T04:53:58.631Z,16.60
2023-04-29T04:56:29.817Z,16.80
2023-04-29T04:58:59.327Z,16.60
2023-04-29T05:01:29.650Z,16.80
2023-04-29T05:03:59.600Z,16.80
2023-04-29T05:06:29.319Z,16.80
2023-04-29T05:08:59.453Z,17.10
2023-04-29T05:11:29.033Z,16.90
2023-04-29T05:14:04.012Z,16.80
2023-04-29T05:16:33.695Z,17.00
2023-04-29T05:19:03.432Z,17.10
2023-04-29T05:21:34.721Z,17.00
2023-04-29T05:24:04.640Z,17.10
2023-04-29T05:26:34.703Z,16.90
2023-04-29T05:29:04.297Z,16.80
2023-04-29T05:31:35.570Z,16.90
2023-04-29T05:34:06.428Z,16.90
2023-04-29T05:36:36.783Z,17.10
2023-04-29T05:39:07.473Z,17.10
2023-04-29T05:41:37.114Z,16.90
2023-04-29T05:44:20.243Z,17.10
2023-04-29T05:46:51.373Z,17.20
2023-04-29T05:49:21.250Z,17.00
2023-04-29T05:51:50.723Z,17.20
2023-04-29T05:54:20.212Z,17.20
2023-04-29T05:56:50.410Z,17.00
2023-04-29T05:59:19.895Z,16.70
2023-04-29T06:01:51.324Z,16.70
2023-04-29T06:04:21.394Z,16.60
2023-04-29T06:07:09.883Z,16.50
2023-04-29T06:09:42.980Z,16.70
2023-04-29T06:12:13.632Z,16.80
2023-04-29T06:14:44.811Z,16.80
2023-04-29T06:17:15.052Z,17.10
2023-04-29T06:19:44.792Z,17.00
2023-04-29T06:22:14.418Z,16.90
2023-04-29T06:24:45.601Z,17.00
2023-04-29T06:27:17.531Z,16.90
2023-04-29T06:29:48.195Z,16.90
2023-04-29T06:32:18.065Z,17.00
2023-04-29T06:34:49.516Z,17.10
2023-04-29T06:37:20.796Z,17.00
2023-04-29T06:39:55.199Z,16.90
2023-04-29T06:42:43.968Z,16.80
2023-04-29T06:45:27.368Z,16.80
2023-04-29T06:48:11.512Z,17.00
2023-04-29T06:50:52.121Z,16.90
2023-04-29T06:53:22.656Z,17.10
2023-04-29T06:55:52.308Z,16.90
2023-04-29T06:58:22.793Z,16.90
2023-04-29T07:00:52.652Z,16.90
2023-04-29T07:03:24.307Z,17.20
2023-04-29T07:05:54.406Z,16.90
2023-04-29T07:08:26.485Z,17.00
2023-04-29T07:10:58.056Z,17.20
2023-04-29T07:13:27.654Z,16.80
2023-04-29T07:15:57.392Z,17.10
2023-04-29T07:18:27.082Z,16.80
2023-04-29T07:21:03.307Z,17.00
2023-04-29T07:23:32.838Z,17.30
2023-04-29T07:26:11.521Z,17.10
2023-04-29T07:28:41.276Z,17.00
2023-04-29T07:31:13.775Z,17.10
2023-04-29T07:33:43.305Z,16.90
2023-04-29T07:36:12.876Z,17.10
2023-04-29T07:38:42.982Z,16.90
2023-04-29T07:41:12.467Z,16.80
2023-04-29T07:43:42.638Z,17.10
2023-04-29T07:46:12.624Z,17.10
2023-04-29T07:48:42.250Z,16.80
2023-04-29T07:51:16.017Z,17.10
2023-04-29T07:53:45.619Z,16.90
2023-04-29T07:56:15.182Z,17.10
2023-04-29T07:58:44.680Z,17.10
2023-04-29T08:01:15.711Z,17.00
2023-04-29T08:03:45.685Z,16.70
2023-04-29T08:06:16.836Z,16.90
2023-04-29T08:08:47.247Z,17.10
2023-04-29T08:11:21.592Z,16.90
2023-04-29T08:13:53.545Z,17.10
2023-04-29T08:16:24.902Z,16.90
2023-04-29T08:18:56.264Z,17.10
2023-04-29T08:21:28.362Z,17.10
2023-04-29T08:23:57.834Z,17.20
2023-04-29T08:26:27.475Z,17.20
2023-04-29T08:28:57.254Z,17.00
2023-04-29T08:31:27.543Z,17.20
2023-04-29T08:33:59.105Z,17.10
2023-04-29T08:36:28.742Z,17.40
2023-04-29T08:38:58.313Z,17.30
2023-04-29T08:41:28.111Z,17.50
2023-04-29T08:43:57.653Z,17.60
2023-04-29T08:46:28.433Z,17.30
2023-04-29T08:48:58.665Z,17.30
2023-04-29T08:51:28.222Z,17.40
2023-04-29T08:53:59.004Z,17.20
2023-04-29T08:56:30.445Z,17.30
2023-04-29T08:59:02.158Z,17.60
2023-04-29T09:01:33.408Z,17.50
2023-04-29T09:04:32.109Z,17.50
2023-04-29T09:07:02.274Z,17.10
2023-04-29T09:09:34.143Z,17.50
2023-04-29T09:12:08.129Z,17.50
2023-04-29T09:14:38.378Z,17.40
2023-04-29T09:17:07.838Z,17.60
2023-04-29T09:19:38.643Z,18.10
2023-04-29T09:22:08.526Z,18.20
2023-04-29T09:24:38.863Z,18.40
2023-04-29T09:27:09.306Z,18.20
2023-04-29T09:29:39.416Z,19.10
2023-04-29T09:32:21.812Z,18.90
2023-04-29T09:34:51.984Z,18.90
2023-04-29T09:37:28.678Z,18.70
2023-04-29T09:39:58.238Z,18.80
2023-04-29T09:42:27.766Z,18.60
2023-04-29T09:44:57.238Z,18.70
2023-04-29T09:47:34.006Z,18.70
2023-04-29T09:50:14.128Z,18.80
2023-04-29T09:52:43.743Z,19.10
2023-04-29T09:55:14.984Z,19.00
2023-04-29T09:57:46.257Z,18.90
2023-04-29T10:00:16.831Z,19.00
2023-04-29T10:02:48.612Z,18.90
2023-04-29T10:05:18.699Z,19.20
2023-04-29T10:07:51.797Z,19.20
2023-04-29T10:10:24.980Z,19.10
2023-04-29T10:12:56.255Z,19.00
2023-04-29T10:15:32.282Z,18.80
2023-04-29T10:18:16.993Z,19.20
2023-04-29T10:20:48.652Z,19.50
2023-04-29T10:23:21.220Z,19.50
2023-04-29T10:25:51.620Z,19.40
2023-04-29T10:28:24.222Z,19.50
2023-04-29T10:30:55.594Z,19.40
2023-04-29T10:33:25.855Z,19.70
2023-04-29T10:35:56.300Z,19.90
2023-04-29T10:38:29.029Z,20.00
2023-04-29T10:40:59.463Z,19.90
2023-04-29T10:43:29.995Z,19.70
2023-04-29T10:46:14.663Z,19.70
2023-04-29T10:48:53.338Z,19.90
2023-04-29T10:52:02.032Z,20.00
2023-04-29T10:54:32.307Z,19.90
2023-04-29T10:57:02.530Z,19.80
2023-04-29T10:59:37.821Z,19.90
2023-04-29T11:02:07.372Z,20.10
2023-04-29T11:04:38.734Z,19.90
2023-04-29T11:07:08.297Z,19.70
2023-04-29T11:09:39.120Z,19.40
2023-04-29T11:12:11.271Z,19.40
2023-04-29T11:14:46.555Z,19.30
2023-04-29T11:17:19.838Z,19.40
2023-04-29T11:19:51.879Z,19.50
2023-04-29T11:22:27.473Z,19.70
2023-04-29T11:25:05.746Z,19.70
2023-04-29T11:27:37.462Z,19.60
2023-04-29T11:30:09.102Z,19.70
2023-04-29T11:32:42.629Z,19.80
2023-04-29T11:35:21.018Z,20.10
2023-04-29T11:37:50.560Z,20.20
2023-04-29T11:40:20.761Z,20.50
2023-04-29T11:42:51.408Z,20.40
2023-04-29T11:45:21.913Z,20.20
2023-04-29T11:47:53.981Z,20.20
2023-04-29T11:50:23.701Z,20.10
2023-04-29T11:52:53.306Z,20.10
2023-04-29T11:55:23.125Z,20.00
2023-04-29T11:57:53.252Z,20.10
2023-04-29T12:00:22.749Z,20.10
2023-04-29T12:02:52.589Z,20.00
2023-04-29T12:05:22.515Z,19.80
2023-04-29T12:07:52.514Z,19.60
2023-04-29T12:10:22.245Z,19.60
2023-04-29T12:12:52.066Z,19.50
2023-04-29T12:15:21.768Z,19.50
2023-04-29T12:17:52.432Z,19.30
2023-04-29T12:20:22.236Z,19.30
2023-04-29T12:22:51.782Z,19.10
2023-04-29T12:25:22.891Z,18.90
2023-04-29T12:27:52.814Z,18.80
2023-04-29T12:30:23.545Z,18.70
2023-04-29T12:32:54.197Z,18.70
2023-04-29T12:35:24.036Z,18.70
2023-04-29T12:37:53.572Z,19.10
2023-04-29T12:40:23.799Z,19.00
2023-04-29T12:42:55.237Z,19.20
2023-04-29T12:45:32.663Z,19.20
2023-04-29T12:48:07.244Z,19.30
2023-04-29T12:50:38.878Z,19.30
2023-04-29T12:53:10.280Z,19.50
2023-04-29T12:55:40.284Z,19.70
2023-04-29T12:58:09.820Z,19.90
2023-04-29T13:00:39.957Z,20.20
2023-04-29T13:03:09.673Z,20.30
2023-04-29T13:05:39.365Z,20.30
2023-04-29T13:08:09.329Z,20.10
2023-04-29T13:10:38.925Z,20.00
2023-04-29T13:13:10.387Z,19.90
2023-04-29T13:15:39.852Z,19.90
2023-04-29T13:18:09.407Z,19.80
2023-04-29T13:20:42.089Z,19.80
2023-04-29T13:23:12.367Z,19.60
2023-04-29T13:25:42.482Z,19.50
2023-04-29T13:28:12.563Z,19.30
2023-04-29T13:30:42.998Z,19.40
2023-04-29T13:33:14.443Z,19.30
2023-04-29T13:35:44.622Z,19.30
2023-04-29T13:38:14.392Z,19.40
2023-04-29T13:40:47.018Z,19.50
2023-04-29T13:43:18.681Z,19.60
2023-04-29T13:45:48.161Z,19.50
2023-04-29T13:48:50.095Z,19.60
2023-04-29T13:51:27.035Z,19.50
2023-04-29T13:53:46.248Z,19.70
2023-04-29T13:56:46.347Z,19.90
2023-04-29T14:03:25.096Z,19.50
2023-04-29T14:05:55.201Z,19.60
2023-04-29T14:08:24.681Z,19.60
2023-04-29T14:10:55.161Z,19.80
2023-04-29T14:13:24.648Z,20.30
2023-04-29T14:15:54.619Z,20.20
2023-04-29T14:18:24.569Z,20.30
2023-04-29T14:20:55.125Z,20.30
2023-04-29T14:23:24.674Z,20.10
2023-04-29T14:25:58.837Z,19.90
2023-04-29T14:28:25.344Z,19.90
2023-04-29T14:30:54.932Z,19.90
2023-04-29T14:33:26.035Z,19.90
2023-04-29T14:35:56.281Z,19.70
2023-04-29T14:38:25.904Z,19.60
2023-04-29T14:40:55.486Z,19.60
2023-04-29T14:43:24.941Z,19.60
2023-04-29T14:45:54.489Z,19.60
2023-04-29T14:48:24.371Z,19.40
2023-04-29T14:50:53.984Z,19.50
2023-04-29T14:53:23.487Z,19.50
2023-04-29T14:55:53.588Z,19.40
2023-04-29T14:58:23.800Z,19.50
2023-04-29T15:00:53.553Z,19.50
2023-04-29T15:03:23.917Z,19.50
2023-04-29T15:05:54.563Z,19.50
2023-04-29T15:08:24.165Z,19.40
2023-04-29T15:10:53.702Z,19.40
2023-04-29T15:13:23.468Z,19.30
2023-04-29T15:15:53.060Z,19.30
2023-04-29T15:18:23.348Z,19.30
2023-04-29T15:20:54.103Z,19.30
2023-04-29T15:23:23.580Z,19.30
2023-04-29T15:25:53.305Z,19.30
2023-04-29T15:28:24.573Z,19.30
2023-04-29T15:30:54.215Z,19.20
2023-04-29T15:33:23.854Z,19.30
2023-04-29T15:35:54.101Z,19.30
2023-04-29T15:38:23.652Z,19.30
2023-04-29T15:40:54.850Z,19.20
2023-04-29T15:43:24.514Z,19.40
2023-04-29T15:45:54.319Z,19.30
2023-04-29T15:48:25.302Z,19.30
2023-04-29T15:50:54.784Z,19.30
2023-04-29T15:53:24.267Z,19.30
2023-04-29T15:55:54.714Z,19.20
2023-04-29T15:58:24.248Z,19.10
2023-04-29T16:00:53.750Z,19.00
2023-04-29T16:03:23.443Z,19.10
2023-04-29T16:05:53.021Z,19.10
2023-04-29T16:08:23.284Z,19.00
2023-04-29T16:10:52.761Z,19.00
2023-04-29T16:13:22.245Z,18.90
2023-04-29T16:15:51.924Z,18.90
2023-04-29T16:18:21.928Z,18.90
2023-04-29T16:20:52.318Z,18.90
2023-04-29T16:23:22.313Z,18.90
2023-04-29T16:25:51.794Z,18.90
2023-04-29T16:28:21.402Z,19.00
2023-04-29T16:30:50.896Z,19.00
2023-04-29T16:33:20.743Z,18.90
2023-04-29T16:35:50.312Z,18.90
2023-04-29T16:38:19.787Z,18.80
2023-04-29T16:40:50.703Z,18.90
2023-04-29T16:43:20.762Z,18.90
2023-04-29T16:45:52.353Z,18.50
2023-04-29T16:48:21.931Z,18.50
2023-04-29T16:50:51.670Z,18.60
2023-04-29T16:53:21.200Z,18.60
2023-04-29T16:55:50.909Z,18.50
2023-04-29T16:58:20.511Z,18.60
2023-04-29T17:00:50.366Z,18.80
2023-04-29T17:03:20.191Z,18.60
2023-04-29T17:05:49.806Z,18.70
2023-04-29T17:08:21.850Z,18.70
2023-04-29T17:10:51.336Z,18.30
2023-04-29T17:13:21.459Z,18.60
2023-04-29T17:15:51.979Z,18.40
2023-04-29T17:18:21.784Z,18.50
2023-04-29T17:20:51.413Z,18.40
2023-04-29T17:23:20.935Z,18.50
2023-04-29T17:25:50.700Z,18.30
2023-04-29T17:28:20.762Z,18.40
2023-04-29T17:30:50.403Z,18.30
2023-04-29T17:33:19.878Z,18.30
2023-04-29T17:35:49.444Z,18.40
2023-04-29T17:38:18.931Z,18.10
2023-04-29T17:40:48.396Z,18.10
2023-04-29T17:43:18.428Z,18.20
2023-04-29T17:45:49.501Z,18.00
2023-04-29T17:48:20.652Z,17.90
2023-04-29T17:50:50.196Z,18.00
2023-04-29T17:53:19.681Z,17.80
2023-04-29T17:55:49.327Z,18.00
2023-04-29T17:58:19.190Z,17.90
2023-04-29T18:00:49.170Z,17.80
2023-04-29T18:03:18.841Z,17.70
2023-04-29T18:05:48.442Z,18.00
2023-04-29T18:08:18.066Z,17.80
2023-04-29T18:10:47.911Z,17.90
2023-04-29T18:13:17.421Z,17.90
2023-04-29T18:15:47.089Z,17.90
2023-04-29T18:18:16.599Z,17.80
2023-04-29T18:20:46.608Z,17.50
2023-04-29T18:23:16.084Z,17.60
2023-04-29T18:25:45.761Z,17.50
2023-04-29T18:28:24.871Z,17.50
2023-04-29T18:30:48.008Z,17.70
2023-04-29T18:33:17.987Z,17.50
2023-04-29T18:35:47.601Z,17.50
2023-04-29T18:38:17.635Z,17.70
2023-04-29T18:40:48.586Z,17.50
2023-04-29T18:43:19.837Z,17.40
2023-04-29T18:45:49.397Z,17.40
2023-04-29T18:48:19.237Z,17.50
2023-04-29T18:50:48.774Z,17.50
2023-04-29T18:53:18.253Z,17.40
2023-04-29T18:55:48.160Z,17.70
2023-04-29T18:58:17.648Z,17.60
2023-04-29T19:00:47.192Z,17.50
2023-04-29T19:03:16.830Z,17.40
2023-04-29T19:05:48.282Z,17.50
2023-04-29T19:08:18.165Z,17.30
2023-04-29T19:10:47.639Z,17.50
2023-04-29T19:13:17.202Z,17.50
2023-04-29T19:15:48.889Z,17.50
2023-04-29T19:18:20.377Z,17.30
2023-04-29T19:20:50.839Z,17.30
2023-04-29T19:23:21.179Z,17.20
2023-04-29T19:25:50.699Z,17.50
2023-04-29T19:28:20.864Z,17.20
2023-04-29T19:30:50.410Z,17.20
2023-04-29T19:33:19.930Z,17.30
2023-04-29T19:35:49.388Z,17.20
2023-04-29T19:38:19.012Z,17.20
2023-04-29T19:40:49.290Z,17.00
2023-04-29T19:43:18.834Z,17.30
2023-04-29T19:45:48.309Z,17.10
2023-04-29T19:48:17.998Z,17.20
2023-04-29T19:50:47.552Z,17.30
2023-04-29T19:53:17.024Z,17.00
2023-04-29T19:55:46.704Z,17.00
2023-04-29T19:58:16.748Z,17.30
2023-04-29T20:00:46.537Z,17.20
2023-04-29T20:03:16.620Z,16.90
2023-04-29T20:05:46.286Z,17.20
2023-04-29T20:08:16.666Z,16.90
2023-04-29T20:10:46.769Z,16.80
2023-04-29T20:13:16.552Z,17.00
2023-04-29T20:15:46.033Z,16.70
2023-04-29T20:18:16.096Z,16.60
2023-04-29T20:20:45.655Z,16.90
2023-04-29T20:23:15.806Z,16.90
2023-04-29T20:25:46.768Z,16.90
2023-04-29T20:28:16.223Z,16.80
2023-04-29T20:30:45.963Z,16.80
2023-04-29T20:33:16.227Z,16.50
2023-04-29T20:35:46.071Z,16.50
2023-04-29T20:38:15.574Z,16.80
2023-04-29T20:40:45.108Z,16.50
2023-04-29T20:43:14.933Z,16.50
2023-04-29T20:45:46.022Z,16.60
2023-04-29T20:48:16.173Z,16.80
2023-04-29T20:50:46.162Z,16.50
2023-04-29T20:53:17.161Z,16.80
2023-04-29T20:55:47.227Z,16.70
2023-04-29T20:58:17.603Z,16.70
2023-04-29T21:00:47.080Z,16.50
2023-04-29T21:03:16.627Z,16.80
2023-04-29T21:05:46.394Z,16.50
2023-04-29T21:08:15.871Z,16.70
2023-04-29T21:10:45.352Z,16.50
2023-04-29T21:13:15.176Z,16.40
2023-04-29T21:15:49.449Z,16.70
2023-04-29T21:18:19.057Z,16.40
2023-04-29T21:20:48.629Z,16.40
2023-04-29T21:23:18.104Z,16.60
2023-04-29T21:25:47.587Z,16.40
2023-04-29T21:28:17.455Z,16.50
2023-04-29T21:30:47.081Z,16.40
2023-04-29T21:33:16.548Z,16.70
2023-04-29T21:35:48.998Z,16.40
2023-04-29T21:38:20.364Z,16.40
2023-04-29T21:40:50.478Z,16.50
2023-04-29T21:43:20.914Z,16.60
2023-04-29T21:45:50.517Z,16.60
2023-04-29T21:48:21.847Z,16.60
2023-04-29T21:50:52.140Z,16.40
2023-04-29T21:53:21.937Z,16.60
2023-04-29T21:55:51.445Z,16.60
2023-04-29T21:58:21.564Z,16.50
2023-04-29T22:01:01.733Z,16.60
2023-04-29T22:03:31.669Z,16.50
2023-04-29T22:06:01.227Z,16.50
2023-04-29T22:08:30.783Z,16.30
2023-04-29T22:11:00.715Z,16.50
2023-04-29T22:13:30.194Z,16.30
2023-04-29T22:15:59.774Z,16.40
2023-04-29T22:18:29.364Z,16.20
2023-04-29T22:20:58.829Z,16.30
2023-04-29T22:23:28.774Z,16.10
2023-04-29T22:25:58.280Z,16.00
2023-04-29T22:28:27.755Z,16.00
2023-04-29T22:30:57.363Z,16.10
2023-04-29T22:33:27.738Z,16.20
2023-04-29T22:35:57.209Z,15.90
2023-04-29T22:38:26.695Z,15.80
2023-04-29T22:40:57.378Z,16.00
2023-04-29T22:43:26.909Z,15.80
2023-04-29T22:45:57.738Z,15.90
2023-04-29T22:48:28.077Z,16.00
2023-04-29T22:51:04.303Z,15.80
2023-04-29T22:53:33.864Z,15.80
2023-04-29T22:56:03.409Z,15.80
2023-04-29T22:58:34.464Z,16.00
2023-04-29T23:01:04.018Z,15.90
2023-04-29T23:03:33.478Z,16.00
2023-04-29T23:06:03.606Z,15.90
2023-04-29T23:08:33.226Z,15.70
2023-04-29T23:11:02.766Z,15.80
2023-04-29T23:13:32.728Z,15.60
2023-04-29T23:16:02.301Z,15.60
2023-04-29T23:18:31.971Z,15.80
2023-04-29T23:21:01.512Z,15.70
2023-04-29T23:23:31.054Z,15.90
2023-04-29T23:26:00.594Z,15.60
2023-04-29T23:28:30.112Z,15.70
2023-04-29T23:30:59.698Z,15.60
2023-04-29T23:33:29.276Z,15.60
2023-04-29T23:35:58.764Z,15.60
2023-04-29T23:38:28.240Z,15.50
2023-04-29T23:40:57.712Z,15.50
2023-04-29T23:43:27.290Z,15.50
2023-04-29T23:45:56.792Z,15.70
2023-04-29T23:48:26.343Z,15.50
2023-04-29T23:50:55.859Z,15.70
2023-04-29T23:53:25.332Z,15.60
2023-04-29T23:55:54.817Z,15.60
2023-04-29T23:58:24.326Z,15.50
